createdAt,value
2023-05-09T00:01:31.848Z,6.13
2023-05-09T00:03:59.218Z,6.23
2023-05-09T00:06:26.297Z,6.57
2023-05-09T00:08:53.300Z,6.00
2023-05-09T00:11:20.253Z,6.07
2023-05-09T00:13:47.126Z,6.63
2023-05-09T00:16:17.196Z,6.73
2023-05-09T00:18:44.194Z,6.83
2023-05-09T00:21:11.290Z,7.47
2023-05-09T00:23:38.209Z,7.50
2023-05-09T00:26:05.604Z,6.47
2023-05-09T00:28:32.614Z,7.50
2023-05-09T00:30:59.575Z,6.73
2023-05-09T00:33:29.096Z,8.30
2023-05-09T00:35:56.088Z,7.23
2023-05-09T00:38:23.484Z,7.10
2023-05-09T00:40:50.461Z,7.63
2023-05-09T00:43:17.507Z,7.93
2023-05-09T00:45:44.875Z,6.93
2023-05-09T00:48:12.053Z,8.27
2023-05-09T00:50:41.642Z,7.57
2023-05-09T00:53:09.164Z,7.60
2023-05-09T00:55:36.413Z,7.37
2023-05-09T00:58:03.781Z,7.63
2023-05-09T01:00:30.653Z,8.00
2023-05-09T01:02:57.550Z,7.67
2023-05-09T01:05:29.436Z,7.00
2023-05-09T01:08:06.819Z,6.27
2023-05-09T01:10:39.530Z,7.10
2023-05-09T01:13:15.310Z,6.00
2023-05-09T01:15:46.921Z,6.20
2023-05-09T01:18:29.917Z,7.13
2023-05-09T01:21:01.832Z,7.03
2023-05-09T01:23:52.642Z,6.17
2023-05-09T01:26:25.776Z,6.33
2023-05-09T01:29:31.811Z,6.13
2023-05-09T01:32:00.082Z,6.07
2023-05-09T01:34:28.967Z,6.40
2023-05-09T01:36:58.289Z,5.87
2023-05-09T01:39:26.976Z,6.37
2023-05-09T01:41:57.905Z,6.40
2023-05-09T01:44:31.922Z,7.07
2023-05-09T01:46:59.807Z,5.63
2023-05-09T01:49:32.577Z,6.53
2023-05-09T01:52:04.493Z,6.50
2023-05-09T01:54:32.915Z,6.10
2023-05-09T01:57:01.168Z,6.13
2023-05-09T01:59:33.449Z,6.60
2023-05-09T02:02:00.514Z,6.07
2023-05-09T02:04:29.069Z,6.73
2023-05-09T02:06:57.485Z,6.73
2023-05-09T02:09:24.691Z,6.63
2023-05-09T02:11:51.617Z,6.60
2023-05-09T02:14:18.560Z,7.27
2023-05-09T02:16:48.449Z,6.40
2023-05-09T02:19:15.366Z,6.13
2023-05-09T02:21:42.402Z,6.47
2023-05-09T02:24:09.452Z,6.50
2023-05-09T02:26:36.843Z,7.13
2023-05-09T02:29:06.917Z,6.33
2023-05-09T02:31:35.488Z,6.23
2023-05-09T02:34:06.059Z,7.23
2023-05-09T02:36:33.108Z,6.40
2023-05-09T02:39:01.108Z,6.77
2023-05-09T02:41:28.392Z,6.70
2023-05-09T02:43:55.399Z,6.57
2023-05-09T02:46:22.374Z,6.30
2023-05-09T02:48:49.314Z,5.93
2023-05-09T02:51:18.800Z,7.00
2023-05-09T02:53:45.710Z,7.50
2023-05-09T02:56:12.667Z,6.83
2023-05-09T02:58:39.560Z,6.87
2023-05-09T03:01:07.321Z,6.70
2023-05-09T03:03:34.372Z,8.43
2023-05-09T03:06:01.433Z,7.63
2023-05-09T03:08:30.961Z,7.47
2023-05-09T03:10:57.882Z,7.13
2023-05-09T03:13:24.857Z,7.00
2023-05-09T03:15:51.946Z,6.57
2023-05-09T03:18:18.852Z,6.40
2023-05-09T03:20:45.771Z,6.47
2023-05-09T03:23:12.712Z,7.13
2023-05-09T03:25:42.237Z,6.43
2023-05-09T03:28:09.156Z,6.20
2023-05-09T03:30:36.092Z,6.03
2023-05-09T03:33:03.041Z,6.87
2023-05-09T03:35:30.000Z,6.40
2023-05-09T03:37:56.938Z,6.57
2023-05-09T03:40:23.880Z,6.23
2023-05-09T03:42:53.415Z,7.20
2023-05-09T03:45:20.380Z,6.87
2023-05-09T03:47:47.310Z,7.53
2023-05-09T03:50:14.248Z,7.60
2023-05-09T03:52:41.159Z,7.80
2023-05-09T03:55:09.126Z,8.40
2023-05-09T03:57:36.332Z,7.90
2023-05-09T04:00:07.668Z,8.73
2023-05-09T04:02:34.792Z,8.70
2023-05-09T04:05:01.940Z,8.53
2023-05-09T04:07:28.870Z,8.30
2023-05-09T04:09:55.943Z,8.27
2023-05-09T04:12:22.859Z,11.90
2023-05-09T04:14:49.903Z,7.60
2023-05-09T04:17:19.448Z,7.87
2023-05-09T04:19:46.408Z,7.50
2023-05-09T04:22:13.328Z,7.53
2023-05-09T04:24:40.245Z,7.73
2023-05-09T04:27:07.158Z,7.77
2023-05-09T04:29:34.034Z,7.53
2023-05-09T04:32:01.098Z,7.03
2023-05-09T04:34:30.892Z,7.77
2023-05-09T04:36:57.847Z,8.10
2023-05-09T04:39:24.784Z,7.90
2023-05-09T04:41:51.706Z,7.87
2023-05-09T04:44:18.662Z,7.20
2023-05-09T04:46:45.658Z,8.17
2023-05-09T04:49:12.569Z,8.83
2023-05-09T04:51:42.120Z,8.40
2023-05-09T04:54:09.030Z,7.77
2023-05-09T04:56:35.911Z,8.00
2023-05-09T04:59:02.842Z,8.53
2023-05-09T05:01:29.755Z,8.53
2023-05-09T05:03:56.729Z,8.63
2023-05-09T05:06:23.678Z,8.17
2023-05-09T05:08:53.156Z,7.87
2023-05-09T05:11:20.023Z,6.83
2023-05-09T05:13:46.936Z,6.97
2023-05-09T05:16:13.886Z,6.17
2023-05-09T05:18:40.795Z,7.20
2023-05-09T05:21:07.675Z,7.10
2023-05-09T05:23:34.598Z,7.43
2023-05-09T05:26:04.148Z,7.37
2023-05-09T05:28:31.091Z,6.97
2023-05-09T05:30:58.033Z,7.10
2023-05-09T05:33:25.066Z,8.73
2023-05-09T05:35:51.953Z,7.67
2023-05-09T05:38:18.900Z,8.07
2023-05-09T05:40:45.884Z,6.20
2023-05-09T05:43:15.412Z,6.27
2023-05-09T05:45:42.320Z,6.50
2023-05-09T05:48:09.205Z,7.77
2023-05-09T05:50:36.161Z,6.80
2023-05-09T05:53:03.126Z,6.97
2023-05-09T05:55:30.097Z,6.27
2023-05-09T05:57:57.060Z,6.40
2023-05-09T06:00:26.584Z,8.47
2023-05-09T06:02:53.543Z,6.83
2023-05-09T06:05:20.489Z,6.70
2023-05-09T06:07:47.538Z,6.30
2023-05-09T06:10:14.492Z,6.20
2023-05-09T06:12:41.483Z,6.47
2023-05-09T06:15:09.071Z,5.93
2023-05-09T06:17:38.731Z,6.97
2023-05-09T06:20:07.470Z,5.77
2023-05-09T06:22:34.408Z,5.97
2023-05-09T06:25:01.396Z,6.03
2023-05-09T06:27:28.337Z,5.80
2023-05-09T06:29:55.288Z,7.23
2023-05-09T06:32:23.336Z,6.30
2023-05-09T06:34:52.898Z,5.87
2023-05-09T06:37:19.806Z,5.50
2023-05-09T06:39:46.719Z,5.70
2023-05-09T06:42:13.618Z,6.43
2023-05-09T06:44:46.028Z,6.00
2023-05-09T06:47:12.934Z,6.27
2023-05-09T06:49:39.858Z,5.77
2023-05-09T06:52:09.368Z,6.87
2023-05-09T06:54:36.229Z,5.70
2023-05-09T06:57:03.189Z,7.10
2023-05-09T06:59:30.182Z,7.70
2023-05-09T07:01:57.140Z,7.40
2023-05-09T07:04:24.088Z,5.70
2023-05-09T07:06:51.040Z,6.50
2023-05-09T07:09:20.568Z,6.53
2023-05-09T07:11:47.451Z,6.83
2023-05-09T07:14:14.396Z,6.80
2023-05-09T07:16:41.375Z,7.30
2023-05-09T07:19:08.297Z,7.83
2023-05-09T07:21:35.233Z,7.37
2023-05-09T07:24:02.115Z,6.67
2023-05-09T07:26:31.665Z,6.70
2023-05-09T07:28:58.556Z,6.17
2023-05-09T07:31:25.578Z,6.67
2023-05-09T07:33:52.529Z,6.40
2023-05-09T07:36:19.556Z,6.17
2023-05-09T07:38:46.574Z,6.40
2023-05-09T07:41:13.705Z,6.17
2023-05-09T07:43:43.199Z,6.53
2023-05-09T07:46:10.219Z,6.03
2023-05-09T07:48:37.219Z,6.20
2023-05-09T07:51:04.359Z,6.40
2023-05-09T07:53:31.253Z,5.73
2023-05-09T07:55:58.167Z,6.67
2023-05-09T07:58:25.102Z,6.10
2023-05-09T08:00:58.028Z,7.17
2023-05-09T08:03:25.173Z,7.13
2023-05-09T08:05:53.763Z,6.37
2023-05-09T08:08:20.683Z,5.93
2023-05-09T08:10:47.634Z,7.20
2023-05-09T08:13:14.637Z,5.73
2023-05-09T08:15:41.826Z,6.90
2023-05-09T08:18:11.437Z,9.37
2023-05-09T08:20:38.335Z,7.77
2023-05-09T08:23:05.260Z,6.67
2023-05-09T08:25:32.627Z,6.77
2023-05-09T08:27:59.605Z,7.70
2023-05-09T08:30:26.540Z,8.17
2023-05-09T08:32:53.485Z,7.07
2023-05-09T08:35:23.098Z,7.40
2023-05-09T08:37:50.071Z,7.17
2023-05-09T08:40:17.565Z,6.93
2023-05-09T08:42:45.426Z,6.67
2023-05-09T08:45:13.881Z,6.30
2023-05-09T08:47:41.562Z,9.10
2023-05-09T08:50:09.823Z,7.23
2023-05-09T08:52:39.873Z,10.67
2023-05-09T08:55:07.425Z,9.10
2023-05-09T08:57:34.523Z,7.30
2023-05-09T09:00:01.610Z,8.43
2023-05-09T09:02:29.436Z,8.90
2023-05-09T09:04:56.620Z,8.40
2023-05-09T09:07:25.651Z,9.17
2023-05-09T09:09:55.816Z,8.57
2023-05-09T09:12:27.006Z,8.63
2023-05-09T09:14:55.425Z,7.77
2023-05-09T09:17:27.299Z,7.10
2023-05-09T09:19:58.292Z,10.00
2023-05-09T09:22:27.721Z,6.07
2023-05-09T09:24:57.313Z,6.23
2023-05-09T09:27:24.222Z,7.27
2023-05-09T09:29:51.162Z,5.97
2023-05-09T09:32:18.155Z,7.53
2023-05-09T09:34:49.150Z,5.43
2023-05-09T09:37:22.366Z,8.73
2023-05-09T09:39:58.086Z,9.30
2023-05-09T09:42:25.123Z,9.83
2023-05-09T09:44:56.998Z,7.63
2023-05-09T09:47:31.625Z,7.30
2023-05-09T09:49:58.557Z,5.97
2023-05-09T09:52:25.522Z,6.40
2023-05-09T09:54:58.068Z,6.83
2023-05-09T09:57:34.693Z,12.13
2023-05-09T10:00:01.716Z,9.10
2023-05-09T10:02:28.634Z,7.57
2023-05-09T10:04:55.645Z,7.40
2023-05-09T10:07:23.209Z,8.13
2023-05-09T10:09:50.107Z,8.20
2023-05-09T10:12:19.939Z,9.13
2023-05-09T10:14:48.504Z,9.13
2023-05-09T10:17:16.714Z,8.57
2023-05-09T10:19:45.801Z,9.33
2023-05-09T10:22:15.470Z,8.00
2023-05-09T10:24:47.175Z,7.43
2023-05-09T10:27:15.741Z,7.13
2023-05-09T10:29:49.334Z,8.83
2023-05-09T10:32:23.617Z,7.07
2023-05-09T10:34:54.622Z,8.30
2023-05-09T10:37:22.330Z,6.40
2023-05-09T10:39:49.715Z,6.53
2023-05-09T10:42:16.705Z,5.73
2023-05-09T10:44:47.064Z,6.53
2023-05-09T10:47:17.478Z,7.20
2023-05-09T10:49:45.180Z,6.63
2023-05-09T10:52:12.173Z,6.27
2023-05-09T10:54:39.084Z,9.00
2023-05-09T10:57:09.579Z,6.73
2023-05-09T10:59:38.177Z,6.77
2023-05-09T11:02:13.036Z,6.33
2023-05-09T11:04:40.985Z,6.27
2023-05-09T11:07:23.473Z,6.10
2023-05-09T11:09:52.021Z,6.67
2023-05-09T11:12:21.017Z,5.47
2023-05-09T11:14:49.477Z,6.60
2023-05-09T11:17:29.044Z,5.53
2023-05-09T11:20:01.256Z,4.90
2023-05-09T11:22:29.191Z,5.13
2023-05-09T11:25:06.446Z,5.80
2023-05-09T11:27:41.968Z,4.20
2023-05-09T11:30:10.843Z,4.90
2023-05-09T11:32:45.747Z,4.50
2023-05-09T11:35:14.474Z,5.87
2023-05-09T11:37:49.382Z,5.03
2023-05-09T11:40:17.802Z,5.00
2023-05-09T11:42:46.390Z,5.70
2023-05-09T11:45:14.676Z,6.10
2023-05-09T11:47:46.275Z,4.30
2023-05-09T11:50:14.994Z,3.77
2023-05-09T11:52:42.186Z,5.30
2023-05-09T11:55:12.627Z,4.87
2023-05-09T11:57:41.180Z,3.80
2023-05-09T12:00:09.685Z,3.63
2023-05-09T12:02:36.966Z,3.47
2023-05-09T12:05:10.873Z,3.53
2023-05-09T12:07:38.483Z,3.30
2023-05-09T12:10:09.897Z,4.67
2023-05-09T12:12:41.818Z,3.30
2023-05-09T12:15:10.093Z,3.57
2023-05-09T12:17:37.477Z,2.80
2023-05-09T12:20:05.320Z,3.03
2023-05-09T12:22:35.472Z,3.43
2023-05-09T12:25:05.913Z,3.30
2023-05-09T12:27:33.454Z,2.77
2023-05-09T12:30:01.141Z,2.37
2023-05-09T12:32:29.282Z,2.43
2023-05-09T12:34:56.261Z,3.10
2023-05-09T12:37:23.190Z,2.57
2023-05-09T12:40:03.834Z,2.30
2023-05-09T12:42:31.012Z,1.97
2023-05-09T12:44:58.078Z,2.70
2023-05-09T12:47:27.147Z,2.13
2023-05-09T12:49:57.855Z,2.10
2023-05-09T12:52:24.969Z,1.90
2023-05-09T12:54:53.512Z,4.53
2023-05-09T12:57:26.200Z,2.63
2023-05-09T12:59:58.451Z,2.97
2023-05-09T13:02:26.443Z,1.87
2023-05-09T13:05:06.593Z,2.60
2023-05-09T13:07:39.382Z,2.50
2023-05-09T13:10:12.447Z,1.80
2023-05-09T13:12:43.444Z,1.80
2023-05-09T13:15:11.416Z,2.33
2023-05-09T13:17:38.640Z,2.40
2023-05-09T13:20:07.481Z,1.97
2023-05-09T13:22:34.484Z,2.27
2023-05-09T13:25:01.416Z,2.40
2023-05-09T13:27:28.293Z,2.37
2023-05-09T13:29:57.809Z,1.70
2023-05-09T13:32:24.842Z,1.27
2023-05-09T13:34:51.880Z,2.00
2023-05-09T13:37:19.133Z,1.77
2023-05-09T13:39:46.090Z,1.47
2023-05-09T13:42:13.010Z,1.60
2023-05-09T13:44:39.977Z,1.70
2023-05-09T13:47:09.566Z,1.50
2023-05-09T13:49:36.924Z,1.53
2023-05-09T13:52:04.134Z,1.30
2023-05-09T13:54:31.135Z,1.90
2023-05-09T13:56:58.090Z,1.60
2023-05-09T13:59:25.013Z,1.53
2023-05-09T14:01:52.080Z,2.80
2023-05-09T14:04:21.648Z,1.50
2023-05-09T14:06:48.656Z,1.40
2023-05-09T14:09:15.699Z,1.50
2023-05-09T14:11:43.039Z,1.53
2023-05-09T14:14:09.950Z,1.73
2023-05-09T14:16:36.894Z,1.37
2023-05-09T14:19:03.938Z,1.53
2023-05-09T14:21:33.490Z,1.27
2023-05-09T14:24:00.524Z,1.77
2023-05-09T14:26:27.543Z,1.63
2023-05-09T14:28:54.786Z,1.43
2023-05-09T14:31:21.756Z,1.40
2023-05-09T14:33:48.678Z,1.40
2023-05-09T14:36:15.674Z,1.30
2023-05-09T14:38:45.224Z,1.40
2023-05-09T14:41:13.367Z,1.43
2023-05-09T14:43:40.651Z,1.40
2023-05-09T14:46:07.675Z,1.30
2023-05-09T14:48:34.624Z,1.37
2023-05-09T14:51:01.749Z,2.13
2023-05-09T14:53:29.450Z,1.10
2023-05-09T14:55:58.974Z,1.50
2023-05-09T14:58:25.916Z,1.60
2023-05-09T15:00:52.895Z,1.30
2023-05-09T15:03:19.950Z,1.50
2023-05-09T15:05:46.918Z,1.50
2023-05-09T15:08:13.852Z,1.30
2023-05-09T15:10:41.366Z,1.40
2023-05-09T15:13:11.156Z,3.57
2023-05-09T15:15:38.241Z,1.27
2023-05-09T15:18:05.413Z,1.67
2023-05-09T15:20:32.331Z,1.67
2023-05-09T15:22:59.286Z,1.43
2023-05-09T15:25:26.248Z,1.60
2023-05-09T15:27:53.389Z,2.60
2023-05-09T15:30:22.890Z,1.50
2023-05-09T15:32:49.895Z,1.60
2023-05-09T15:35:16.980Z,1.30
2023-05-09T15:37:44.135Z,1.40
2023-05-09T15:40:11.852Z,1.50
2023-05-09T15:42:38.833Z,1.03
2023-05-09T15:45:07.019Z,1.10
2023-05-09T15:47:36.584Z,1.33
2023-05-09T15:50:03.762Z,1.20
2023-05-09T15:52:30.894Z,1.00
2023-05-09T15:54:57.845Z,1.37
2023-05-09T15:57:24.770Z,1.50
2023-05-09T15:59:51.650Z,1.33
2023-05-09T16:02:18.568Z,1.30
2023-05-09T16:04:48.167Z,1.40
2023-05-09T16:07:15.117Z,1.20
2023-05-09T16:09:41.985Z,2.03
2023-05-09T16:12:08.872Z,2.30
2023-05-09T16:14:35.833Z,1.40
2023-05-09T16:17:03.676Z,1.20
2023-05-09T16:19:30.970Z,1.17
2023-05-09T16:22:00.776Z,1.03
2023-05-09T16:24:27.719Z,1.30
2023-05-09T16:26:54.625Z,1.23
2023-05-09T16:29:21.543Z,1.30
2023-05-09T16:31:48.479Z,1.53
2023-05-09T16:34:15.442Z,1.80
2023-05-09T16:36:42.323Z,1.90
2023-05-09T16:39:11.864Z,1.93
2023-05-09T16:41:38.755Z,2.37
2023-05-09T16:44:05.685Z,2.20
2023-05-09T16:46:32.753Z,1.90
2023-05-09T16:48:59.673Z,2.10
2023-05-09T16:51:26.577Z,2.60
2023-05-09T16:53:53.560Z,2.60
2023-05-09T16:56:23.099Z,2.30
2023-05-09T16:58:49.995Z,3.23
2023-05-09T17:01:17.013Z,2.77
2023-05-09T17:03:44.080Z,2.70
2023-05-09T17:06:11.041Z,3.37
2023-05-09T17:08:37.957Z,2.60
2023-05-09T17:11:05.257Z,2.70
2023-05-09T17:13:34.778Z,2.53
2023-05-09T17:16:01.746Z,2.80
2023-05-09T17:18:37.020Z,3.07
2023-05-09T17:21:04.964Z,3.20
2023-05-09T17:23:31.899Z,2.87
2023-05-09T17:25:58.850Z,2.97
2023-05-09T17:28:25.801Z,3.03
2023-05-09T17:30:55.273Z,3.20
2023-05-09T17:33:22.219Z,3.33
2023-05-09T17:35:49.157Z,2.93
2023-05-09T17:38:16.077Z,3.10
2023-05-09T17:40:43.055Z,2.63
2023-05-09T17:43:10.242Z,2.70
2023-05-09T17:45:37.263Z,2.40
2023-05-09T17:48:07.278Z,2.50
2023-05-09T17:50:34.298Z,3.30
2023-05-09T17:53:01.243Z,2.90
2023-05-09T17:55:28.113Z,2.60
2023-05-09T17:57:54.997Z,2.60
2023-05-09T18:00:22.391Z,2.60
2023-05-09T18:02:49.440Z,2.77
2023-05-09T18:05:19.052Z,3.23
2023-05-09T18:07:45.964Z,4.07
2023-05-09T18:10:13.177Z,3.60
2023-05-09T18:12:40.291Z,2.50
2023-05-09T18:15:08.660Z,2.97
2023-05-09T18:17:35.607Z,3.13
2023-05-09T18:20:03.343Z,2.80
2023-05-09T18:22:32.946Z,3.40
2023-05-09T18:25:00.635Z,3.00
2023-05-09T18:27:27.583Z,3.07
2023-05-09T18:29:54.562Z,2.90
2023-05-09T18:32:21.455Z,3.53
2023-05-09T18:34:48.511Z,2.80
2023-05-09T18:37:15.473Z,2.70
2023-05-09T18:39:44.993Z,3.27
2023-05-09T18:42:13.306Z,3.00
2023-05-09T18:44:41.540Z,2.83
2023-05-09T18:47:08.575Z,2.90
2023-05-09T18:49:35.617Z,3.13
2023-05-09T18:52:02.549Z,3.30
2023-05-09T18:54:29.437Z,5.20
2023-05-09T18:56:59.034Z,3.17
2023-05-09T18:59:26.052Z,3.33
2023-05-09T19:01:52.993Z,3.20
2023-05-09T19:04:20.229Z,3.23
2023-05-09T19:06:47.252Z,3.63
2023-05-09T19:09:14.202Z,3.60
2023-05-09T19:11:41.109Z,6.50
2023-05-09T19:14:10.663Z,3.17
2023-05-09T19:16:37.601Z,3.00
2023-05-09T19:19:04.562Z,3.20
2023-05-09T19:21:31.484Z,2.97
2023-05-09T19:23:58.429Z,2.97
2023-05-09T19:26:25.393Z,3.00
2023-05-09T19:28:52.259Z,3.60
2023-05-09T19:31:21.867Z,3.10
2023-05-09T19:33:48.810Z,2.97
2023-05-09T19:36:15.760Z,3.47
2023-05-09T19:38:42.638Z,2.93
2023-05-09T19:41:09.773Z,3.13
2023-05-09T19:43:36.681Z,3.07
2023-05-09T19:46:03.663Z,2.90
2023-05-09T19:48:33.183Z,3.40
2023-05-09T19:51:00.125Z,3.50
2023-05-09T19:53:27.058Z,4.43
2023-05-09T19:55:54.043Z,4.20
2023-05-09T19:58:21.039Z,4.10
2023-05-09T20:00:48.472Z,4.23
2023-05-09T20:03:15.474Z,2.10
2023-05-09T20:05:45.240Z,2.00
2023-05-09T20:08:12.133Z,2.00
2023-05-09T20:10:39.131Z,1.90
2023-05-09T20:13:06.042Z,2.10
2023-05-09T20:15:33.270Z,1.60
2023-05-09T20:18:00.277Z,1.93
2023-05-09T20:20:27.448Z,1.70
2023-05-09T20:22:56.963Z,1.70
2023-05-09T20:25:24.108Z,1.80
2023-05-09T20:27:51.053Z,2.17
2023-05-09T20:30:18.075Z,2.60
2023-05-09T20:32:45.038Z,2.13
2023-05-09T20:35:11.965Z,1.70
2023-05-09T20:37:38.873Z,1.57
2023-05-09T20:40:09.818Z,1.60
2023-05-09T20:42:36.963Z,3.73
2023-05-09T20:45:04.830Z,1.90
2023-05-09T20:47:31.861Z,1.67
2023-05-09T20:49:58.799Z,2.10
2023-05-09T20:52:25.783Z,2.27
2023-05-09T20:54:52.697Z,2.13
2023-05-09T20:57:22.382Z,2.00
2023-05-09T20:59:49.250Z,2.03
2023-05-09T21:02:16.232Z,1.97
2023-05-09T21:04:43.168Z,2.57
2023-05-09T21:07:10.094Z,1.80
2023-05-09T21:09:37.088Z,2.30
2023-05-09T21:12:04.423Z,1.93
2023-05-09T21:14:33.935Z,2.07
2023-05-09T21:17:00.872Z,1.93
2023-05-09T21:19:28.113Z,3.10
2023-05-09T21:21:55.344Z,2.30
2023-05-09T21:24:22.260Z,2.10
2023-05-09T21:26:49.130Z,1.90
2023-05-09T21:29:16.074Z,1.47
2023-05-09T21:31:45.599Z,1.50
2023-05-09T21:34:12.530Z,2.90
2023-05-09T21:36:40.426Z,1.60
2023-05-09T21:39:07.841Z,1.70
2023-05-09T21:41:34.856Z,2.13
2023-05-09T21:44:01.803Z,2.13
2023-05-09T21:46:31.437Z,2.00
2023-05-09T21:49:01.259Z,2.80
2023-05-09T21:51:28.574Z,2.07
2023-05-09T21:53:55.623Z,1.90
2023-05-09T21:56:23.059Z,1.80
2023-05-09T21:58:49.992Z,1.93
2023-05-09T22:01:17.172Z,2.00
2023-05-09T22:03:44.160Z,2.57
2023-05-09T22:06:13.787Z,1.60
2023-05-09T22:08:40.762Z,2.27
2023-05-09T22:11:07.731Z,1.80
2023-05-09T22:13:34.979Z,2.77
2023-05-09T22:16:01.988Z,2.10
2023-05-09T22:18:29.025Z,1.93
2023-05-09T22:20:55.952Z,2.97
2023-05-09T22:23:25.702Z,1.93
2023-05-09T22:25:52.984Z,2.40
2023-05-09T22:28:20.075Z,2.30
2023-05-09T22:30:46.999Z,2.50
2023-05-09T22:33:13.984Z,2.33
2023-05-09T22:35:41.019Z,2.07
2023-05-09T22:38:07.979Z,2.20
2023-05-09T22:40:37.482Z,2.00
2023-05-09T22:43:04.385Z,2.27
2023-05-09T22:45:31.389Z,1.93
2023-05-09T22:47:58.389Z,2.20
2023-05-09T22:50:25.414Z,2.40
2023-05-09T22:52:52.330Z,2.40
2023-05-09T22:55:19.367Z,2.57
2023-05-09T22:57:48.862Z,2.40
2023-05-09T23:00:16.707Z,2.23
2023-05-09T23:02:44.031Z,2.40
2023-05-09T23:05:11.106Z,2.30
2023-05-09T23:07:37.985Z,2.90
2023-05-09T23:10:05.547Z,2.30
2023-05-09T23:12:32.476Z,3.13
2023-05-09T23:15:02.068Z,2.10
2023-05-09T23:17:29.050Z,2.13
2023-05-09T23:19:55.931Z,2.20
2023-05-09T23:22:22.789Z,2.17
2023-05-09T23:24:49.669Z,1.83
2023-05-09T23:27:16.622Z,3.50
2023-05-09T23:29:43.534Z,1.87
2023-05-09T23:32:13.072Z,2.20
2023-05-09T23:34:39.961Z,1.77
2023-05-09T23:37:07.542Z,1.83
2023-05-09T23:39:34.945Z,2.07
2023-05-09T23:42:01.858Z,1.90
2023-05-09T23:44:28.762Z,2.10
2023-05-09T23:46:55.814Z,3.03
2023-05-09T23:49:25.388Z,2.43
2023-05-09T23:51:52.300Z,2.03
2023-05-09T23:54:19.204Z,1.40
2023-05-09T23:56:46.090Z,1.20
2023-05-09T23:59:12.983Z,1.10
